Time;durP1;ratioP1;P1;durP2;ratioP2;P2;SDS_P1;SDS_P2;PMS_P1;PMS_P2;Temp;Humidity;BMP_temperature;BMP_pressure;BME280_temperature;BME280_humidity;BME280_pressure;Samples;Min_cycle;Max_cycle;Signal;HPM_P1;HPM_P2
2023/11/28 00:01:44;;;;;;;5.68;3.45;;;;;;;9.89;53.40;99293.28;5059997;28;20039;-61
2023/11/28 00:04:09;;;;;;;4.43;3.13;;;;;;;9.89;52.68;99297.81;5076444;28;20058;-61
2023/11/28 00:06:35;;;;;;;7.38;3.65;;;;;;;9.85;53.56;99307.16;5076317;28;20055;-61
2023/11/28 00:09:01;;;;;;;4.72;3.65;;;;;;;9.86;52.95;99309.66;5074669;28;20103;-61
2023/11/28 00:11:26;;;;;;;5.60;3.55;;;;;;;9.88;53.89;99317.53;5079934;28;20032;-61
2023/11/28 00:13:51;;;;;;;6.38;3.20;;;;;;;9.91;53.25;99312.69;5076323;28;20028;-61
2023/11/28 00:16:17;;;;;;;5.03;3.47;;;;;;;9.94;53.58;99323.06;5093121;28;20028;-61
2023/11/28 00:18:43;;;;;;;4.68;3.35;;;;;;;9.98;53.71;99318.22;5076321;28;20498;-62
2023/11/28 00:21:09;;;;;;;4.63;3.20;;;;;;;9.98;53.55;99328.09;5076200;28;20059;-61
2023/11/28 00:23:34;;;;;;;5.30;3.20;;;;;;;9.99;53.53;99332.44;5076019;28;20035;-61
2023/11/28 00:26:00;;;;;;;4.82;2.95;;;;;;;10.02;53.57;99335.63;5094378;28;20089;-61
2023/11/28 00:28:25;;;;;;;4.20;2.72;;;;;;;10.04;53.23;99340.81;5094192;28;20035;-61
2023/11/28 00:30:52;;;;;;;4.13;2.80;;;;;;;10.01;53.85;99333.97;5076489;28;20081;-61
2023/11/28 00:33:17;;;;;;;3.88;2.78;;;;;;;10.04;53.46;99348.84;5076199;28;20036;-61
2023/11/28 00:35:43;;;;;;;4.25;2.88;;;;;;;10.05;53.28;99355.88;5094104;28;20042;-61
2023/11/28 00:38:08;;;;;;;4.20;3.25;;;;;;;10.02;53.32;99361.56;5059287;28;20052;-61
2023/11/28 00:40:34;;;;;;;5.00;3.63;;;;;;;10.02;53.42;99362.38;5075829;28;20064;-61
2023/11/28 00:42:59;;;;;;;5.10;3.03;;;;;;;10.02;53.17;99373.09;5093944;28;20024;-62
2023/11/28 00:45:25;;;;;;;5.50;3.67;;;;;;;9.99;53.32;99368.06;5075604;28;20032;-61
2023/11/28 00:47:54;;;;;;;4.80;3.05;;;;;;;10.02;52.90;99375.78;5075763;28;20042;-61
2023/11/28 00:50:20;;;;;;;4.50;2.78;;;;;;;10.04;53.63;99383.63;5075539;28;20031;-62
2023/11/28 00:52:46;;;;;;;4.80;3.40;;;;;;;10.06;52.98;99387.81;5093732;28;20028;-61
2023/11/28 00:55:11;;;;;;;3.63;3.05;;;;;;;10.07;53.48;99397.50;5058840;28;20067;-61
2023/11/28 00:57:37;;;;;;;4.85;3.13;;;;;;;10.09;53.27;99392.84;5076159;28;20028;-62
2023/11/28 01:00:03;;;;;;;9.85;3.13;;;;;;;10.10;52.75;99401.69;5075869;28;20123;-61
2023/11/28 01:02:29;;;;;;;5.07;2.95;;;;;;;10.15;52.91;99410.94;5075432;28;20032;-61
2023/11/28 01:04:55;;;;;;;5.05;3.50;;;;;;;10.11;53.07;99414.06;5093585;28;20396;-61
2023/11/28 01:07:21;;;;;;;6.40;3.13;;;;;;;10.12;53.13;99423.78;5075098;28;20024;-61
2023/11/28 01:09:46;;;;;;;4.13;3.28;;;;;;;10.11;52.86;99440.81;5075303;28;20032;-61
2023/11/28 01:12:12;;;;;;;4.57;2.95;;;;;;;10.06;53.42;99437.78;5093134;28;20039;-61
2023/11/28 01:14:37;;;;;;;5.70;3.80;;;;;;;9.98;53.33;99437.75;5093747;28;20081;-61
2023/11/28 01:17:06;;;;;;;6.20;3.83;;;;;;;10.01;53.25;99443.63;5093330;28;20040;-61
2023/11/28 01:19:32;;;;;;;4.47;3.13;;;;;;;10.06;53.36;99454.69;5075923;28;20036;-61
2023/11/28 01:22:00;;;;;;;4.82;3.05;;;;;;;10.09;53.43;99464.22;5058461;28;20044;-61
2023/11/28 01:24:25;;;;;;;4.60;2.90;;;;;;;10.09;53.04;99459.72;5093066;28;20040;-61
2023/11/28 01:26:51;;;;;;;5.35;3.75;;;;;;;10.08;52.64;99478.63;5075252;28;20039;-62
2023/11/28 01:29:16;;;;;;;4.10;3.70;;;;;;;10.09;52.99;99480.28;5074073;28;20043;-61
2023/11/28 01:31:41;;;;;;;3.55;2.72;;;;;;;10.11;53.24;99488.97;5075201;28;20502;-61
2023/11/28 01:34:07;;;;;;;4.97;2.90;;;;;;;10.13;53.05;99492.38;5093244;28;20051;-61
2023/11/28 01:36:32;;;;;;;3.97;2.97;;;;;;;10.17;53.01;99499.91;5075149;28;20028;-61
2023/11/28 01:38:58;;;;;;;4.47;3.00;;;;;;;10.14;53.55;99488.69;5093110;28;20077;-61
2023/11/28 01:41:23;;;;;;;4.65;3.33;;;;;;;10.19;53.27;99497.09;5075093;28;20571;-61
2023/11/28 01:43:49;;;;;;;3.15;2.38;;;;;;;10.17;53.68;99494.56;5075592;28;20043;-61
2023/11/28 01:46:16;;;;;;;6.18;2.72;;;;;;;10.19;53.60;99503.25;5092960;28;20117;-61
2023/11/28 01:48:42;;;;;;;2.92;2.65;;;;;;;10.22;53.18;99510.97;5064897;28;20036;-60
2023/11/28 01:51:08;;;;;;;2.75;2.33;;;;;;;10.21;53.11;99516.50;5075062;28;20119;-61
2023/11/28 01:53:33;;;;;;;3.47;2.55;;;;;;;10.19;53.25;99526.53;5057955;28;20072;-61
2023/11/28 01:56:00;;;;;;;3.30;2.40;;;;;;;10.21;53.90;99537.91;5074929;28;20119;-62
2023/11/28 01:58:26;;;;;;;3.20;2.05;;;;;;;10.21;53.29;99540.59;5074812;28;20032;-61
2023/11/28 02:00:51;;;;;;;3.67;2.53;;;;;;;10.21;53.37;99551.28;5074574;28;20036;-61
2023/11/28 02:03:19;;;;;;;3.67;2.65;;;;;;;10.16;53.30;99553.59;5074875;28;20032;-61
2023/11/28 02:05:44;;;;;;;2.83;2.50;;;;;;;10.14;53.20;99553.75;5074674;28;20064;-61
2023/11/28 02:08:12;;;;;;;2.45;2.25;;;;;;;10.15;53.61;99549.22;5057949;28;20074;-61
2023/11/28 02:10:39;;;;;;;2.95;2.40;;;;;;;10.14;53.55;99561.78;5074624;28;20471;-61
2023/11/28 02:13:07;;;;;;;2.63;2.38;;;;;;;10.17;53.57;99568.63;5092766;28;20047;-62
2023/11/28 02:15:44;;;;;;;3.58;2.72;;;;;;;10.17;53.27;99580.19;5074777;28;20040;-61
2023/11/28 02:18:12;;;;;;;2.60;2.40;;;;;;;10.14;53.00;99585.00;5059330;28;20032;-61
2023/11/28 02:20:39;;;;;;;2.40;2.20;;;;;;;10.11;53.28;99579.94;5078639;28;20042;-61
2023/11/28 02:23:04;;;;;;;3.10;2.72;;;;;;;10.10;53.06;99588.97;5061869;28;20116;-62
2023/11/28 02:25:34;;;;;;;4.50;2.50;;;;;;;10.12;53.29;99597.69;5078584;28;20122;-62
2023/11/28 02:28:00;;;;;;;3.22;2.85;;;;;;;10.09;53.04;99596.16;5078172;28;20507;-62
2023/11/28 02:30:26;;;;;;;2.42;2.22;;;;;;;10.11;52.56;99595.97;5078451;28;20115;-61
2023/11/28 02:32:51;;;;;;;2.55;2.35;;;;;;;10.13;52.62;99594.03;5096511;28;20089;-62
2023/11/28 02:35:18;;;;;;;3.20;2.75;;;;;;;10.15;53.40;99608.09;5078488;28;20487;-61
2023/11/28 02:37:43;;;;;;;2.58;2.08;;;;;;;10.15;52.99;99600.91;5061714;28;20044;-61
2023/11/28 02:40:09;;;;;;;3.22;2.92;;;;;;;10.18;53.15;99607.78;5096386;28;20036;-62
2023/11/28 02:42:35;;;;;;;2.70;2.50;;;;;;;10.21;52.96;99623.53;5078215;28;20056;-62
2023/11/28 02:45:01;;;;;;;2.83;2.53;;;;;;;10.24;53.03;99617.88;5077985;28;20045;-62
2023/11/28 02:47:26;;;;;;;3.47;3.17;;;;;;;10.25;52.26;99624.88;5095926;28;20407;-62
2023/11/28 02:49:51;;;;;;;3.55;2.95;;;;;;;10.29;52.86;99631.63;5078166;28;20052;-62
2023/11/28 02:52:17;;;;;;;4.07;2.85;;;;;;;10.26;52.21;99626.56;5077979;28;20090;-62
2023/11/28 02:54:42;;;;;;;3.10;2.63;;;;;;;10.26;52.93;99642.63;5067727;28;20040;-61
2023/11/28 02:57:08;;;;;;;2.83;2.30;;;;;;;10.25;52.36;99635.59;5078070;28;20488;-63
2023/11/28 02:59:33;;;;;;;2.90;2.65;;;;;;;10.25;52.72;99638.25;5061154;28;20032;-62
2023/11/28 03:01:58;;;;;;;3.00;2.60;;;;;;;10.25;52.81;99646.28;5076853;28;20442;-62
2023/11/28 03:04:24;;;;;;;2.80;2.38;;;;;;;10.27;52.95;99649.66;5060997;28;20044;-62
2023/11/28 03:06:50;;;;;;;3.75;2.83;;;;;;;10.23;51.85;99649.13;5077668;28;20116;-61
2023/11/28 03:09:15;;;;;;;3.15;2.83;;;;;;;10.23;52.56;99649.13;5077844;28;20492;-62
2023/11/28 03:11:41;;;;;;;8.77;3.22;;;;;;;10.20;52.71;99660.16;5077372;28;20036;-62
2023/11/28 03:14:08;;;;;;;4.40;3.28;;;;;;;10.20;52.84;99664.66;5077852;28;20402;-62
2023/11/28 03:16:33;;;;;;;2.97;2.60;;;;;;;10.22;53.02;99668.00;5061031;28;20038;-62
2023/11/28 03:18:58;;;;;;;3.47;2.78;;;;;;;10.21;52.68;99677.06;5077487;28;20119;-61
2023/11/28 03:21:24;;;;;;;5.30;2.80;;;;;;;10.22;52.97;99681.38;5077482;28;20036;-62
2023/11/28 03:23:50;;;;;;;4.75;3.10;;;;;;;10.20;52.98;99678.88;5077634;28;20551;-61
2023/11/28 03:26:16;;;;;;;4.50;3.22;;;;;;;10.17;53.12;99684.53;5097302;28;20111;-63
2023/11/28 03:28:42;;;;;;;4.32;3.42;;;;;;;10.26;52.85;99697.00;5096788;28;20043;-62
2023/11/28 03:31:08;;;;;;;3.60;3.30;;;;;;;10.28;52.54;99710.22;5097002;28;20115;-64
2023/11/28 03:33:34;;;;;;;4.05;2.95;;;;;;;10.27;52.55;99708.56;5095576;28;20035;-61
2023/11/28 03:35:59;;;;;;;3.15;2.70;;;;;;;10.22;52.42;99703.66;5077388;28;20024;-62
2023/11/28 03:38:24;;;;;;;4.57;3.10;;;;;;;10.25;52.76;99721.22;5095372;28;20119;-61
2023/11/28 03:40:50;;;;;;;3.92;2.75;;;;;;;10.22;52.66;99719.69;5094758;28;20032;-61
2023/11/28 03:43:15;;;;;;;4.63;3.13;;;;;;;10.22;52.47;99726.88;5077161;28;20055;-62
2023/11/28 03:45:41;;;;;;;4.65;3.28;;;;;;;10.19;52.42;99733.38;5076855;28;20040;-62
2023/11/28 03:48:06;;;;;;;5.75;3.80;;;;;;;10.17;52.73;99735.38;5060066;28;20081;-63
2023/11/28 03:50:31;;;;;;;4.85;3.28;;;;;;;10.17;52.48;99739.88;5076865;28;20032;-61
2023/11/28 03:52:57;;;;;;;5.13;3.72;;;;;;;10.17;52.50;99745.25;5076956;28;20387;-61
2023/11/28 03:55:22;;;;;;;4.68;3.58;;;;;;;10.17;52.61;99761.28;5076721;28;20089;-61
2023/11/28 03:57:49;;;;;;;5.25;3.85;;;;;;;10.18;52.61;99773.69;5076755;28;20533;-62
2023/11/28 04:00:14;;;;;;;5.95;3.60;;;;;;;10.18;52.29;99760.31;5059012;28;20510;-62
2023/11/28 04:02:40;;;;;;;5.05;3.85;;;;;;;10.18;52.35;99771.84;5076731;28;20028;-61
2023/11/28 04:05:06;;;;;;;6.43;3.95;;;;;;;10.13;52.31;99762.59;5076394;28;20569;-61
2023/11/28 04:07:32;;;;;;;5.13;3.72;;;;;;;10.14;52.27;99777.66;5059844;28;20040;-61
2023/11/28 04:09:57;;;;;;;5.32;4.18;;;;;;;10.15;52.95;99779.34;5094629;28;20149;-62
2023/11/28 04:12:22;;;;;;;5.95;4.10;;;;;;;10.19;52.29;99792.25;5076584;28;20513;-62
2023/11/28 04:14:48;;;;;;;6.05;4.53;;;;;;;10.15;52.06;99784.69;5076521;28;20031;-61
2023/11/28 04:17:13;;;;;;;5.88;4.13;;;;;;;10.16;52.53;99784.53;5076277;28;20028;-61
2023/11/28 04:19:39;;;;;;;5.82;4.03;;;;;;;10.14;52.72;99783.00;5094455;28;20028;-62
2023/11/28 04:22:04;;;;;;;6.03;4.68;;;;;;;10.16;52.43;99797.91;5094370;28;20024;-61
2023/11/28 04:24:30;;;;;;;4.47;3.78;;;;;;;10.14;52.40;99796.38;5094053;28;20560;-62
2023/11/28 04:26:55;;;;;;;6.60;4.18;;;;;;;10.17;52.45;99804.94;5059631;28;20028;-62
2023/11/28 04:29:22;;;;;;;6.85;4.10;;;;;;;10.13;52.79;99797.41;5076190;28;20032;-61
2023/11/28 04:31:47;;;;;;;5.25;3.83;;;;;;;10.14;52.69;99810.59;5076339;28;20082;-61
2023/11/28 04:34:12;;;;;;;5.40;3.92;;;;;;;10.12;52.93;99817.06;5059209;28;20028;-61
2023/11/28 04:36:41;;;;;;;6.45;4.40;;;;;;;10.09;52.67;99822.72;5076139;28;20039;-62
2023/11/28 04:39:07;;;;;;;8.18;4.53;;;;;;;10.11;52.46;99831.44;5094255;28;20032;-62
2023/11/28 04:41:33;;;;;;;5.88;4.03;;;;;;;10.07;52.52;99830.91;5075316;28;20032;-61
2023/11/28 04:43:59;;;;;;;6.32;4.30;;;;;;;10.05;52.40;99829.38;5075759;28;20028;-61
2023/11/28 04:46:25;;;;;;;6.30;3.95;;;;;;;10.05;52.41;99843.56;5075719;28;20032;-61
2023/11/28 04:48:50;;;;;;;8.10;5.03;;;;;;;10.06;52.33;99855.13;5075655;28;20032;-62
2023/11/28 04:51:17;;;;;;;6.10;4.22;;;;;;;10.03;52.93;99850.06;5059049;28;20055;-61
2023/11/28 04:53:42;;;;;;;7.35;4.35;;;;;;;10.02;52.48;99853.75;5092682;28;20052;-61
2023/11/28 04:56:08;;;;;;;6.63;4.30;;;;;;;9.98;52.64;99858.56;5093680;28;20419;-61
2023/11/28 04:58:35;;;;;;;6.15;4.07;;;;;;;9.97;52.27;99861.41;5059056;28;20035;-62
2023/11/28 05:01:04;;;;;;;6.63;4.90;;;;;;;10.00;52.26;99866.41;5093681;28;20503;-62
2023/11/28 05:03:30;;;;;;;6.93;4.30;;;;;;;9.96;52.96;99860.53;5093270;28;20047;-63
2023/11/28 05:05:55;;;;;;;7.85;4.75;;;;;;;9.95;52.22;99875.75;5058686;28;20028;-62
2023/11/28 05:08:21;;;;;;;5.82;4.70;;;;;;;9.99;52.41;99878.13;5042063;28;20032;-61
2023/11/28 05:10:46;;;;;;;9.45;4.63;;;;;;;9.99;52.53;99880.81;5093740;28;20116;-62
2023/11/28 05:13:11;;;;;;;6.68;4.50;;;;;;;10.01;52.23;99884.16;5075220;28;20024;-62
2023/11/28 05:15:37;;;;;;;9.70;5.70;;;;;;;10.03;52.82;99890.19;5075250;28;20066;-62
2023/11/28 05:18:02;;;;;;;6.00;3.75;;;;;;;10.01;52.95;99894.88;5093312;28;20494;-61
2023/11/28 05:20:28;;;;;;;6.78;4.82;;;;;;;10.02;52.48;99896.56;5074962;28;20020;-61
2023/11/28 05:22:53;;;;;;;7.03;4.97;;;;;;;10.01;52.01;99910.91;5058374;28;20031;-62
2023/11/28 05:25:18;;;;;;;7.97;5.60;;;;;;;10.00;52.67;99914.56;5093129;28;20063;-62
2023/11/28 05:27:44;;;;;;;8.43;5.10;;;;;;;9.99;52.05;99926.28;5092949;28;20446;-62
2023/11/28 05:30:10;;;;;;;7.40;4.75;;;;;;;9.92;51.74;99934.03;5093281;28;20357;-61
2023/11/28 05:32:37;;;;;;;7.35;5.13;;;;;;;9.93;52.58;99939.25;5075188;28;20426;-61
2023/11/28 05:35:02;;;;;;;7.72;5.03;;;;;;;9.91;52.17;99938.53;5092950;28;20016;-61
2023/11/28 05:37:29;;;;;;;8.00;5.28;;;;;;;9.86;51.85;99946.16;5092900;28;20023;-61
2023/11/28 05:39:55;;;;;;;7.80;5.43;;;;;;;9.85;52.69;99944.47;5075192;28;20438;-61
2023/11/28 05:42:20;;;;;;;6.70;5.10;;;;;;;9.85;52.26;99951.69;5092895;28;20016;-61
2023/11/28 05:44:46;;;;;;;8.25;4.95;;;;;;;9.85;51.61;99971.22;5057914;28;20024;-61
2023/11/28 05:47:12;;;;;;;7.07;5.10;;;;;;;9.82;52.11;99974.22;5092961;28;20523;-61
2023/11/28 05:49:37;;;;;;;6.70;5.22;;;;;;;9.83;52.40;99977.69;5075169;28;20065;-61
2023/11/28 05:52:03;;;;;;;6.68;5.40;;;;;;;9.83;52.00;99983.91;5074774;28;20024;-61
2023/11/28 05:54:30;;;;;;;9.45;5.40;;;;;;;9.83;52.39;99983.91;5092757;28;20135;-62
2023/11/28 05:56:55;;;;;;;6.57;5.18;;;;;;;9.83;51.69;99999.94;5058168;28;20027;-61
2023/11/28 05:59:21;;;;;;;9.60;4.95;;;;;;;9.85;51.93;99995.28;5074816;28;20016;-61
2023/11/28 06:02:00;;;;;;;6.80;4.63;;;;;;;9.90;51.95;100005.56;5092572;28;20466;-61
2023/11/28 06:04:29;;;;;;;8.13;5.03;;;;;;;9.90;51.49;100001.06;5057793;28;20032;-62
2023/11/28 06:06:54;;;;;;;9.77;5.50;;;;;;;9.88;51.98;100016.41;5093019;28;20080;-61
2023/11/28 06:09:20;;;;;;;7.68;5.10;;;;;;;9.86;51.83;100010.34;5074989;28;20103;-61
2023/11/28 06:11:46;;;;;;;7.13;5.22;;;;;;;9.88;51.76;100016.41;5074371;28;20071;-61
2023/11/28 06:14:12;;;;;;;7.97;5.03;;;;;;;9.90;51.86;100019.78;5074974;28;20048;-61
2023/11/28 06:16:37;;;;;;;7.07;5.40;;;;;;;9.86;51.46;100010.34;5074585;28;20682;-62
2023/11/28 06:19:04;;;;;;;7.10;5.40;;;;;;;9.87;51.44;100027.25;5092681;28;20028;-61
2023/11/28 06:21:30;;;;;;;7.50;4.43;;;;;;;9.85;51.13;100040.75;5092699;28;20020;-61
2023/11/28 06:23:55;;;;;;;6.28;4.63;;;;;;;9.80;51.57;100035.00;5057946;28;20495;-61
2023/11/28 06:26:21;;;;;;;7.18;4.93;;;;;;;9.83;51.60;100057.94;5057715;28;20032;-62
2023/11/28 06:28:47;;;;;;;7.65;5.40;;;;;;;9.86;51.60;100057.66;5092631;28;20551;-62
2023/11/28 06:31:13;;;;;;;7.20;5.13;;;;;;;9.89;51.43;100066.25;5074705;28;20032;-62
2023/11/28 06:33:38;;;;;;;7.28;5.43;;;;;;;9.94;51.33;100072.00;5074584;28;20111;-62
2023/11/28 06:36:05;;;;;;;8.57;5.60;;;;;;;9.96;51.69;100079.91;5092771;28;20028;-62
2023/11/28 06:38:31;;;;;;;7.72;5.13;;;;;;;9.93;51.85;100086.38;5041303;28;20031;-62
2023/11/28 06:40:56;;;;;;;7.85;5.35;;;;;;;9.96;51.68;100095.94;5092072;28;20455;-61
2023/11/28 06:43:22;;;;;;;7.10;4.93;;;;;;;9.93;50.93;100099.75;5092259;28;20024;-61
2023/11/28 06:45:47;;;;;;;8.40;5.13;;;;;;;9.89;50.92;100103.69;5074273;28;20438;-62
2023/11/28 06:48:13;;;;;;;7.07;4.70;;;;;;;9.84;51.26;100108.63;5092280;28;20086;-61
2023/11/28 06:50:38;;;;;;;8.65;4.72;;;;;;;9.82;50.88;100118.63;5092355;28;20039;-62
2023/11/28 06:53:03;;;;;;;5.10;3.83;;;;;;;9.83;51.50;100128.31;5074244;28;20074;-61
2023/11/28 06:55:29;;;;;;;7.50;4.28;;;;;;;9.80;51.32;100131.28;5092440;28;20115;-59
2023/11/28 06:57:55;;;;;;;6.63;4.47;;;;;;;9.80;51.25;100141.97;5092377;28;20435;-59
2023/11/28 07:00:21;;;;;;;5.72;3.72;;;;;;;9.80;51.16;100154.50;5074225;28;20415;-59
2023/11/28 07:02:46;;;;;;;6.13;3.22;;;;;;;9.75;50.73;100154.09;5057225;28;20035;-59
2023/11/28 07:05:12;;;;;;;4.28;2.90;;;;;;;9.69;50.77;100152.81;5076849;28;20040;-59
2023/11/28 07:07:38;;;;;;;4.07;2.58;;;;;;;9.66;51.22;100153.09;5078005;28;20020;-59
2023/11/28 07:10:08;;;;;;;4.10;2.92;;;;;;;9.61;51.23;100160.69;5077666;28;20543;-59
2023/11/28 07:12:33;;;;;;;3.53;2.42;;;;;;;9.58;50.46;100162.78;5096010;28;20036;-59
2023/11/28 07:14:59;;;;;;;5.20;1.98;;;;;;;9.55;51.00;100174.63;5077701;28;20411;-59
2023/11/28 07:17:26;;;;;;;3.83;1.85;;;;;;;9.47;51.08;100174.47;5077846;28;20043;-59
2023/11/28 07:19:51;;;;;;;3.65;2.05;;;;;;;9.49;50.80;100179.69;5077702;28;20491;-60
2023/11/28 07:22:16;;;;;;;1.58;1.48;;;;;;;9.43;50.91;100178.41;5077569;28;20028;-59
2023/11/28 07:24:42;;;;;;;4.28;1.70;;;;;;;9.43;50.71;100189.09;5095517;28;20036;-59
2023/11/28 07:27:07;;;;;;;3.25;1.48;;;;;;;9.44;50.31;100190.78;5060863;28;20039;-59
2023/11/28 07:29:33;;;;;;;1.95;1.67;;;;;;;9.43;50.23;100199.81;5095275;28;20024;-59
2023/11/28 07:31:58;;;;;;;3.08;2.03;;;;;;;9.44;50.17;100197.94;5077317;28;20060;-59
2023/11/28 07:34:23;;;;;;;1.50;1.40;;;;;;;9.44;50.24;100206.81;5095302;28;20024;-59
2023/11/28 07:36:51;;;;;;;2.78;1.98;;;;;;;9.42;50.33;100203.44;5077323;28;20043;-59
2023/11/28 07:39:17;;;;;;;3.20;1.85;;;;;;;9.46;50.22;100218.25;5077762;28;20111;-59
2023/11/28 07:41:42;;;;;;;2.10;1.80;;;;;;;9.47;50.06;100222.59;5060732;28;20457;-59
2023/11/28 07:44:08;;;;;;;1.80;1.42;;;;;;;9.48;49.88;100234.13;5061452;28;20024;-59
2023/11/28 07:46:33;;;;;;;2.55;1.55;;;;;;;9.46;50.09;100238.78;5097274;28;20032;-60
2023/11/28 07:48:58;;;;;;;3.10;1.88;;;;;;;9.44;50.04;100241.56;5096400;28;20028;-60
2023/11/28 07:51:24;;;;;;;5.80;1.40;;;;;;;9.35;50.26;100250.41;5095748;28;20085;-59
2023/11/28 07:53:49;;;;;;;2.60;1.60;;;;;;;9.30;50.29;100252.63;5061059;28;20415;-59
2023/11/28 07:56:18;;;;;;;3.35;1.63;;;;;;;9.28;50.45;100259.94;5095782;28;20044;-59
2023/11/28 07:58:43;;;;;;;2.65;1.60;;;;;;;9.28;49.83;100273.31;5095425;28;20119;-59
2023/11/28 08:01:10;;;;;;;2.88;1.92;;;;;;;9.25;49.45;100284.25;5078794;28;20063;-60
2023/11/28 08:03:35;;;;;;;1.63;1.23;;;;;;;9.24;50.14;100283.41;5079725;28;20032;-59
2023/11/28 08:06:03;;;;;;;1.30;1.02;;;;;;;9.28;50.14;100297.34;5080419;28;20384;-59
2023/11/28 08:08:29;;;;;;;3.28;1.85;;;;;;;9.31;49.72;100297.09;5079074;28;20040;-59
2023/11/28 08:10:54;;;;;;;2.60;1.40;;;;;;;9.34;49.96;100303.03;5095615;28;20086;-59
2023/11/28 08:13:20;;;;;;;2.20;1.55;;;;;;;9.41;49.80;100308.66;5077454;28;20028;-60
2023/11/28 08:15:46;;;;;;;2.40;1.50;;;;;;;9.46;49.72;100306.44;5079088;28;20036;-59
2023/11/28 08:18:12;;;;;;;3.30;1.75;;;;;;;9.51;49.95;100306.03;5078902;28;20043;-59
2023/11/28 08:20:37;;;;;;;1.98;1.60;;;;;;;9.55;49.60;100308.28;5096521;28;20038;-59
2023/11/28 08:23:03;;;;;;;2.42;1.50;;;;;;;9.55;49.57;100316.31;5078576;28;20032;-59
2023/11/28 08:25:28;;;;;;;1.58;1.30;;;;;;;9.58;49.62;100315.19;5078277;28;20514;-59
2023/11/28 08:27:54;;;;;;;2.70;1.58;;;;;;;9.61;49.42;100315.78;5078500;28;20487;-59
2023/11/28 08:30:19;;;;;;;1.48;1.38;;;;;;;9.63;49.35;100321.00;5076504;28;20427;-59
2023/11/28 08:32:44;;;;;;;2.28;1.65;;;;;;;9.67;49.40;100331.28;5076180;28;20036;-59
2023/11/28 08:35:10;;;;;;;3.03;1.80;;;;;;;9.72;49.49;100321.00;5059403;28;20028;-59
2023/11/28 08:37:36;;;;;;;3.70;1.77;;;;;;;9.75;49.25;100320.75;5094287;28;20059;-59
2023/11/28 08:40:01;;;;;;;2.33;1.52;;;;;;;9.81;49.14;100330.91;5094129;28;20043;-59
2023/11/28 08:42:27;;;;;;;2.95;1.40;;;;;;;9.88;48.87;100340.06;5076258;28;20044;-59
2023/11/28 08:44:52;;;;;;;2.83;1.73;;;;;;;9.97;49.10;100337.56;5094293;28;20056;-59
2023/11/28 08:47:17;;;;;;;2.40;1.70;;;;;;;10.05;49.20;100356.44;5094484;28;20430;-60
2023/11/28 08:49:44;;;;;;;2.08;1.45;;;;;;;10.15;48.74;100360.00;5076361;28;20032;-59
2023/11/28 08:52:10;;;;;;;2.88;1.45;;;;;;;10.25;48.91;100363.53;5075963;28;20088;-59
2023/11/28 08:54:45;;;;;;;2.55;1.52;;;;;;;10.30;48.98;100372.84;5075756;28;20044;-59
2023/11/28 08:57:13;;;;;;;3.70;2.13;;;;;;;10.37;48.83;100367.78;5075699;28;20040;-59
2023/11/28 08:59:39;;;;;;;2.88;1.50;;;;;;;10.38;48.95;100377.53;5093842;28;20074;-59
2023/11/28 09:02:04;;;;;;;2.25;1.63;;;;;;;10.45;48.68;100375.97;5075439;28;20051;-59
2023/11/28 09:04:30;;;;;;;1.92;1.55;;;;;;;10.50;48.54;100381.75;5093610;28;20024;-59
2023/11/28 09:06:55;;;;;;;2.67;1.55;;;;;;;10.49;48.51;100374.72;5058960;28;20555;-59
2023/11/28 09:09:21;;;;;;;2.78;1.75;;;;;;;10.56;48.39;100383.88;5075578;28;20151;-59
2023/11/28 09:11:46;;;;;;;3.28;1.65;;;;;;;10.63;48.52;100389.53;5075728;28;20501;-59
2023/11/28 09:14:12;;;;;;;3.00;2.10;;;;;;;10.64;48.54;100402.75;5093469;28;20399;-60
2023/11/28 09:16:37;;;;;;;4.65;1.92;;;;;;;10.60;49.08;100395.16;5075129;28;20035;-59
2023/11/28 09:19:02;;;;;;;3.88;2.15;;;;;;;10.65;48.39;100400.94;5074901;28;20081;-59
2023/11/28 09:21:28;;;;;;;1.98;1.80;;;;;;;10.69;48.69;100407.72;5093216;28;20052;-58
2023/11/28 09:23:53;;;;;;;2.20;1.40;;;;;;;10.72;48.05;100408.25;5093244;28;20044;-59
2023/11/28 09:26:18;;;;;;;5.55;2.20;;;;;;;10.81;48.49;100402.06;5057993;28;20115;-59
2023/11/28 09:28:44;;;;;;;3.92;1.90;;;;;;;10.93;48.09;100414.34;5093219;28;20099;-59
2023/11/28 09:31:10;;;;;;;3.33;1.73;;;;;;;11.14;48.28;100414.16;5093395;28;20024;-59
2023/11/28 09:33:35;;;;;;;3.40;2.10;;;;;;;11.19;48.00;100419.13;5093298;28;20032;-59
2023/11/28 09:36:01;;;;;;;3.67;1.70;;;;;;;11.28;47.77;100420.94;5093166;28;20495;-59
2023/11/28 09:38:27;;;;;;;6.47;1.67;;;;;;;11.60;47.79;100424.09;5093123;28;20032;-59
2023/11/28 09:40:53;;;;;;;4.05;1.80;;;;;;;11.58;48.39;100426.09;5075127;28;20032;-59
2023/11/28 09:43:22;;;;;;;2.95;1.88;;;;;;;11.84;46.53;100416.41;5075242;28;20380;-59
2023/11/28 09:45:47;;;;;;;3.72;1.75;;;;;;;12.16;46.96;100418.69;5074877;28;20499;-59
2023/11/28 09:48:13;;;;;;;2.63;1.63;;;;;;;12.60;46.29;100419.69;5093055;28;20078;-60
2023/11/28 09:50:39;;;;;;;4.60;1.80;;;;;;;13.05;47.30;100428.53;5075132;28;20036;-60
2023/11/28 09:53:05;;;;;;;3.17;1.50;;;;;;;13.28;45.76;100426.22;5074771;28;20476;-59
2023/11/28 09:55:31;;;;;;;3.63;1.67;;;;;;;13.60;46.03;100426.44;5058089;28;20028;-59
2023/11/28 09:57:57;;;;;;;2.78;2.08;;;;;;;14.14;46.48;100430.63;5093030;28;20627;-59
2023/11/28 10:00:23;;;;;;;3.33;2.03;;;;;;;14.47;45.67;100427.06;5092936;28;20085;-59
2023/11/28 10:02:51;;;;;;;3.00;1.80;;;;;;;15.00;44.54;100423.09;5058119;28;20515;-59
2023/11/28 10:05:18;;;;;;;1.98;1.60;;;;;;;15.29;44.40;100430.72;5075144;28;20037;-59
2023/11/28 10:07:52;;;;;;;1.63;1.52;;;;;;;15.15;44.53;100438.47;5060197;28;20426;-60
2023/11/28 10:10:19;;;;;;;2.50;1.55;;;;;;;15.49;43.85;100441.03;5077608;28;20407;-60
2023/11/28 10:12:44;;;;;;;2.85;1.30;;;;;;;15.17;44.86;100446.38;5076338;28;20038;-60
2023/11/28 10:15:10;;;;;;;4.10;1.48;;;;;;;14.98;45.23;100446.72;5093067;28;20115;-59
2023/11/28 10:17:36;;;;;;;2.80;1.23;;;;;;;14.84;44.99;100450.06;5074876;28;20059;-60
2023/11/28 10:20:09;;;;;;;1.40;1.30;;;;;;;14.70;45.58;100438.06;5074779;28;20081;-60
2023/11/28 10:22:34;;;;;;;;;;;;;;;14.55;45.74;100445.94;5092739;28;20157;-60
2023/11/28 10:25:11;;;;;;;1.27;1.17;;;;;;;14.38;46.08;100449.59;5074517;28;19908;-60
2023/11/28 10:27:40;;;;;;;2.05;1.65;;;;;;;14.19;45.18;100455.22;5093036;28;20036;-59
2023/11/28 10:30:09;;;;;;;1.10;1.00;;;;;;;14.01;44.99;100462.53;5057919;28;20028;-60
2023/11/28 10:32:36;;;;;;;1.95;1.23;;;;;;;13.82;45.23;100463.59;5075090;28;20111;-59
2023/11/28 10:35:02;;;;;;;2.00;1.23;;;;;;;13.72;45.29;100462.00;5074948;28;20032;-59
2023/11/28 10:37:27;;;;;;;2.80;1.50;;;;;;;13.59;45.37;100458.91;5057753;28;20059;-59
2023/11/28 10:39:55;;;;;;;1.40;1.15;;;;;;;13.44;45.50;100458.63;5076707;28;20089;-60
2023/11/28 10:42:21;;;;;;;1.42;1.17;;;;;;;13.32;45.15;100465.25;5061888;28;20031;-59
2023/11/28 10:44:46;;;;;;;1.88;1.20;;;;;;;13.26;45.87;100461.31;5096343;28;20044;-59
2023/11/28 10:47:13;;;;;;;1.10;0.90;;;;;;;13.15;45.94;100460.75;5078316;28;20032;-59
2023/11/28 10:49:39;;;;;;;6.07;1.55;;;;;;;13.01;46.25;100466.63;5096156;28;20518;-59
2023/11/28 10:52:05;;;;;;;3.72;1.30;;;;;;;12.84;45.90;100471.00;5061484;28;20028;-59
2023/11/28 10:54:33;;;;;;;1.45;0.95;;;;;;;12.70;46.39;100464.28;5061031;28;20048;-59
2023/11/28 10:57:02;;;;;;;2.38;1.30;;;;;;;12.59;46.51;100486.00;5096134;28;20032;-59
2023/11/28 10:59:28;;;;;;;2.63;1.52;;;;;;;12.45;45.86;100480.31;5078510;28;20040;-59
2023/11/28 11:01:54;;;;;;;1.58;1.15;;;;;;;12.34;45.32;100486.69;5096005;28;20126;-59
2023/11/28 11:04:19;;;;;;;1.40;1.30;;;;;;;12.31;45.47;100488.84;5077917;28;20043;-59
2023/11/28 11:06:45;;;;;;;1.10;1.08;;;;;;;12.32;46.09;100485.16;5077943;28;20369;-58
2023/11/28 11:09:11;;;;;;;2.22;1.40;;;;;;;12.37;45.74;100474.84;5077824;28;20051;-59
2023/11/28 11:11:37;;;;;;;3.30;1.00;;;;;;;12.45;46.43;100485.69;5095964;28;20396;-59
2023/11/28 11:14:31;;;;;;;2.67;1.13;;;;;;;12.41;45.39;100478.91;5095081;28;20043;-61
2023/11/28 11:17:54;;;;;;;0.95;0.95;;;;;;;12.34;45.41;100491.25;5095638;28;20402;-58
2023/11/28 11:20:22;;;;;;;3.03;1.40;;;;;;;12.27;45.17;100483.78;5013619;28;20038;-59
2023/11/28 11:22:51;;;;;;;3.17;1.45;;;;;;;12.26;45.08;100476.72;4981096;28;20042;-59
2023/11/28 11:25:26;;;;;;;2.17;1.17;;;;;;;12.27;45.17;100470.34;4981105;28;20129;-59
2023/11/28 11:27:52;;;;;;;1.30;1.20;;;;;;;12.25;46.19;100479.56;4997008;28;20056;-59